Du har inga inställningar för hoppväder.nu

Hoppväder.nu

Senast uppdaterat 06:59

UTC-tid

2020-01-29 kl. 05:59


Sol och måne

Solen går upp 8:21 och går ner 16:01 (beräknade cirkatider)
Nästa fullmåne blir om 11 dagar (2020-02-09)

METAR

ESSD (Borlänge)
(9 minuter sedan)
ESSD 290550Z AUTO 09005KT 2800 -SN VV007 00/00 Q0987=



ESOE (Örebro)
(9 minuter sedan)
ESOE 290550Z 00000KT 4000 BR BKN006 03/02 Q0986=



ESOW (Västerås)
(9 minuter sedan)
ESOW 290550Z AUTO 11007KT 4700 BR OVC006/// 03/01 Q0988 REDZ=



ESOK (Karlstad)
(9 minuter sedan)
ESOK 290550Z 10006KT 9000 VV002 01/01 Q0985=






TAF

ESSD (Borlänge)
ESSD



ESOE (Örebro)
(29 minuter sedan)
ESOE 290530Z 2906/2915 09005KT 5000 OVC005 TEMPO 2906/2908 1000 BR SCT006 BKN015 BECMG 2908/2910 BKN010 BECMG 2912/2914 BKN015=



ESOW (Västerås)
ESOW



ESOK (Karlstad)
(29 minuter sedan)
ESOK 290530Z 2906/2915 10007KT 9999 OVC002 BECMG 2906/2908 BKN010 TEMPO 2908/2915 2500 BR BKN006=





Kodnycklar till TAF och METAR






LHP

(Borlänge är område F2a i Norra delen)







Spotting

Hur fungerar spotthjälpen och Vindkartan?

Markvind är ca 0 m/s.
Vind på 600 m ca 0 m/s.
Vind på 1500 m ca 0 m/s.
Vind på 3000 m ca 0 m/s.
Rudolf-David flyger ca 41 m/s över marken på finalen.
Du driver ca 0 m bakåt i frifall. (0 m)
Lämplig spot är 7 sekunder eller 288 m innan gropen.
(-7s eller -288 m)
För små grupper eller ensamhoppare bör man vänta 4-5 sekunder mellan grupperna.
För större grupper bör man vänta 7-9 sekunder mellan grupperna.


Vindkartan

Senast uppdaterad 06:59




All data kommer från LFV.se